createdAt,value
2016-02-17T00:00:51.936Z,1022.26
2016-02-17T00:01:51.954Z,1022.22
2016-02-17T00:02:51.972Z,1022.16
2016-02-17T00:03:51.990Z,1022.15
2016-02-17T00:04:52.010Z,1022.12
2016-02-17T00:05:52.013Z,1022.13
2016-02-17T00:06:52.030Z,1022.04
2016-02-17T00:07:52.049Z,1022.06
2016-02-17T00:08:52.066Z,1022.08
2016-02-17T00:09:52.085Z,1022.13
2016-02-17T00:10:52.103Z,1022.14
2016-02-17T00:11:52.107Z,1022.11
2016-02-17T00:12:52.124Z,1022.08
2016-02-17T00:13:52.143Z,1022.11
2016-02-17T00:14:52.162Z,1022.18
2016-02-17T00:15:52.179Z,1022.12
2016-02-17T00:16:52.182Z,1022.13
2016-02-17T00:17:52.200Z,1022.14
2016-02-17T00:18:52.218Z,1022.19
2016-02-17T00:19:52.237Z,1022.15
2016-02-17T00:20:52.255Z,1022.13
2016-02-17T00:21:52.258Z,1022.1
2016-02-17T00:22:52.276Z,1022.1
2016-02-17T00:23:52.294Z,1022.12
2016-02-17T00:24:52.313Z,1022.1
2016-02-17T00:25:52.331Z,1022.05
2016-02-17T00:26:52.350Z,1022.03
2016-02-17T00:27:52.353Z,1022.06
2016-02-17T00:28:52.370Z,1022
2016-02-17T00:29:52.389Z,1022.03
2016-02-17T00:30:52.396Z,1022.01
2016-02-17T00:31:52.415Z,1022.03
2016-02-17T00:32:52.433Z,1021.97
2016-02-17T00:33:52.452Z,1021.98
2016-02-17T00:34:52.469Z,1021.98
2016-02-17T00:35:52.488Z,1021.9
2016-02-17T00:36:52.491Z,1021.9
2016-02-17T00:37:52.509Z,1021.92
2016-02-17T00:38:52.527Z,1021.88
2016-02-17T00:39:52.545Z,1021.83
2016-02-17T00:40:52.565Z,1021.75
2016-02-17T00:41:52.582Z,1021.76
2016-02-17T00:42:52.585Z,1021.75
2016-02-17T00:43:52.618Z,1021.73
2016-02-17T00:44:52.621Z,1021.73
2016-02-17T00:45:52.640Z,1021.68
2016-02-17T00:46:52.659Z,1021.67
2016-02-17T00:47:52.676Z,1021.69
2016-02-17T00:48:52.679Z,1021.68
2016-02-17T00:49:52.698Z,1021.74
2016-02-17T00:50:52.716Z,1021.73
2016-02-17T00:51:52.734Z,1021.7
2016-02-17T00:52:52.752Z,1021.74
2016-02-17T00:53:52.756Z,1021.7
2016-02-17T00:54:52.773Z,1021.72
2016-02-17T00:55:52.792Z,1021.69
2016-02-17T00:56:52.810Z,1021.71
2016-02-17T00:57:52.828Z,1021.63
2016-02-17T00:58:52.831Z,1021.62
2016-02-17T00:59:52.849Z,1021.61
2016-02-17T01:00:52.868Z,1021.58
2016-02-17T01:01:52.886Z,1021.56
2016-02-17T01:02:52.905Z,1021.5
2016-02-17T01:03:52.922Z,1021.52
2016-02-17T01:04:52.925Z,1021.53
2016-02-17T01:05:52.943Z,1021.53
2016-02-17T01:06:52.963Z,1021.5
2016-02-17T01:07:52.980Z,1021.46
2016-02-17T01:08:52.983Z,1021.45
2016-02-17T01:09:53.001Z,1021.38
2016-02-17T01:10:53.020Z,1021.4
2016-02-17T01:11:53.038Z,1021.47
2016-02-17T01:12:53.056Z,1021.4
2016-02-17T01:13:53.074Z,1021.41
2016-02-17T01:14:53.093Z,1021.35
2016-02-17T01:15:53.095Z,1021.31
2016-02-17T01:16:53.114Z,1021.27
2016-02-17T01:17:53.132Z,1021.28
2016-02-17T01:18:53.151Z,1021.26
2016-02-17T01:19:53.169Z,1021.27
2016-02-17T01:20:53.172Z,1021.25
2016-02-17T01:21:53.189Z,1021.21
2016-02-17T01:22:53.209Z,1021.22
2016-02-17T01:23:53.226Z,1021.14
2016-02-17T01:24:53.245Z,1021.16
2016-02-17T01:25:53.264Z,1021.19
2016-02-17T01:26:53.281Z,1021.19
2016-02-17T01:27:53.284Z,1021.18
2016-02-17T01:28:53.303Z,1021.14
2016-02-17T01:29:53.321Z,1021.13
2016-02-17T01:30:53.339Z,1021.1
2016-02-17T01:31:53.342Z,1021.1
2016-02-17T01:32:53.360Z,1021.05
2016-02-17T01:33:53.378Z,1021.01
2016-02-17T01:34:53.396Z,1020.99
2016-02-17T01:35:53.416Z,1020.95
2016-02-17T01:36:53.418Z,1020.9
2016-02-17T01:37:53.436Z,1020.9
2016-02-17T01:38:53.454Z,1020.95
2016-02-17T01:39:53.473Z,1020.9
2016-02-17T01:40:53.476Z,1020.91
2016-02-17T01:41:53.493Z,1020.91
2016-02-17T01:42:53.512Z,1020.91
2016-02-17T01:43:53.530Z,1020.87
2016-02-17T01:44:53.549Z,1020.88
2016-02-17T01:45:53.567Z,1020.91
2016-02-17T01:46:53.570Z,1020.87
2016-02-17T01:47:53.588Z,1020.88
2016-02-17T01:48:53.606Z,1020.84
2016-02-17T01:49:53.625Z,1020.75
2016-02-17T01:50:53.642Z,1020.74
2016-02-17T01:51:53.661Z,1020.73
2016-02-17T01:52:53.664Z,1020.71
2016-02-17T01:53:53.682Z,1020.72
2016-02-17T01:54:53.700Z,1020.66
2016-02-17T01:55:53.719Z,1020.66
2016-02-17T01:56:53.737Z,1020.67
2016-02-17T01:57:53.740Z,1020.68
2016-02-17T01:58:53.758Z,1020.63
2016-02-17T01:59:53.777Z,1020.63
2016-02-17T02:00:53.795Z,1020.6
2016-02-17T02:01:53.813Z,1020.56
2016-02-17T02:02:53.816Z,1020.56
2016-02-17T02:03:53.833Z,1020.55
2016-02-17T02:04:53.852Z,1020.55
2016-02-17T02:05:53.871Z,1020.49
2016-02-17T02:06:53.873Z,1020.52
2016-02-17T02:07:53.892Z,1020.47
2016-02-17T02:08:53.910Z,1020.43
2016-02-17T02:09:53.929Z,1020.41
2016-02-17T02:10:53.947Z,1020.39
2016-02-17T02:11:53.965Z,1020.35
2016-02-17T02:12:53.983Z,1020.32
2016-02-17T02:13:53.986Z,1020.27
2016-02-17T02:14:54.004Z,1020.26
2016-02-17T02:15:54.023Z,1020.24
2016-02-17T02:16:54.041Z,1020.2
2016-02-17T02:17:54.044Z,1020.21
2016-02-17T02:18:54.062Z,1020.18
2016-02-17T02:19:54.080Z,1020.16
2016-02-17T02:20:54.098Z,1020.12
2016-02-17T02:21:54.101Z,1020.09
2016-02-17T02:22:54.120Z,1020.07
2016-02-17T02:23:54.137Z,1020.09
2016-02-17T02:24:54.156Z,1020.08
2016-02-17T02:25:54.176Z,1020.09
2016-02-17T02:26:54.179Z,1020.05
2016-02-17T02:27:54.196Z,1020.06
2016-02-17T02:28:54.215Z,1020.07
2016-02-17T02:29:54.234Z,1020.02
2016-02-17T02:30:54.251Z,1019.98
2016-02-17T02:31:54.254Z,1019.93
2016-02-17T02:32:54.272Z,1019.91
2016-02-17T02:33:54.291Z,1019.89
2016-02-17T02:34:54.309Z,1019.95
2016-02-17T02:35:54.328Z,1019.9
2016-02-17T02:36:54.330Z,1019.9
2016-02-17T02:37:54.348Z,1019.93
2016-02-17T02:38:54.367Z,1019.94
2016-02-17T02:39:54.385Z,1019.92
2016-02-17T02:40:54.403Z,1019.88
2016-02-17T02:41:54.406Z,1019.86
2016-02-17T02:42:54.425Z,1019.85
2016-02-17T02:43:54.442Z,1019.86
2016-02-17T02:44:54.461Z,1019.83
2016-02-17T02:45:54.480Z,1019.85
2016-02-17T02:46:54.483Z,1019.78
2016-02-17T02:47:54.500Z,1019.81
2016-02-17T02:48:54.519Z,1019.8
2016-02-17T02:49:54.537Z,1019.84
2016-02-17T02:50:54.555Z,1019.85
2016-02-17T02:51:54.558Z,1019.8
2016-02-17T02:52:54.576Z,1019.76
2016-02-17T02:53:54.594Z,1019.73
2016-02-17T02:54:54.613Z,1019.67
2016-02-17T02:55:54.632Z,1019.64
2016-02-17T02:56:54.635Z,1019.63
2016-02-17T02:57:54.652Z,1019.61
2016-02-17T02:58:54.671Z,1019.55
2016-02-17T02:59:54.689Z,1019.53
2016-02-17T03:00:54.692Z,1019.47
2016-02-17T03:01:54.756Z,1019.48
2016-02-17T03:02:54.729Z,1019.49
2016-02-17T03:03:54.746Z,1019.46
2016-02-17T03:04:54.749Z,1019.4
2016-02-17T03:05:54.783Z,1019.43
2016-02-17T03:06:54.786Z,1019.4
2016-02-17T03:07:54.804Z,1019.42
2016-02-17T03:08:54.822Z,1019.39
2016-02-17T03:09:54.825Z,1019.48
2016-02-17T03:10:54.844Z,1019.43
2016-02-17T03:11:54.862Z,1019.44
2016-02-17T03:12:54.880Z,1019.43
2016-02-17T03:13:54.898Z,1019.41
2016-02-17T03:14:54.900Z,1019.4
2016-02-17T03:15:54.920Z,1019.38
2016-02-17T03:16:54.953Z,1019.4
2016-02-17T03:17:54.956Z,1019.41
2016-02-17T03:18:54.974Z,1019.4
2016-02-17T03:19:54.977Z,1019.38
2016-02-17T03:20:54.996Z,1019.32
2016-02-17T03:21:55.013Z,1019.31
2016-02-17T03:22:55.032Z,1019.22
2016-02-17T03:23:55.035Z,1019.23
2016-02-17T03:24:55.053Z,1019.25
2016-02-17T03:25:55.071Z,1019.22
2016-02-17T03:26:55.090Z,1019.22
2016-02-17T03:27:55.108Z,1019.18
2016-02-17T03:28:55.126Z,1019.17
2016-02-17T03:29:55.129Z,1019.15
2016-02-17T03:30:55.147Z,1019.13
2016-02-17T03:31:55.166Z,1019.12
2016-02-17T03:32:55.184Z,1019.02
2016-02-17T03:33:55.187Z,1019.05
2016-02-17T03:34:55.205Z,1019.03
2016-02-17T03:35:55.223Z,1019.02
2016-02-17T03:36:55.242Z,1019.04
2016-02-17T03:37:55.244Z,1019.06
2016-02-17T03:38:55.262Z,1019.03
2016-02-17T03:39:55.281Z,1018.97
2016-02-17T03:40:55.300Z,1018.95
2016-02-17T03:41:55.302Z,1018.91
2016-02-17T03:42:55.320Z,1018.86
2016-02-17T03:43:55.338Z,1018.79
2016-02-17T03:44:55.356Z,1018.77
2016-02-17T03:45:55.375Z,1018.74
2016-02-17T03:46:55.394Z,1018.76
2016-02-17T03:47:55.411Z,1018.73
2016-02-17T03:48:55.414Z,1018.72
2016-02-17T03:49:55.433Z,1018.74
2016-02-17T03:50:55.435Z,1018.72
2016-02-17T03:51:55.454Z,1018.72
2016-02-17T03:52:55.472Z,1018.74
2016-02-17T03:53:55.491Z,1018.7
2016-02-17T03:54:55.508Z,1018.69
2016-02-17T03:55:55.511Z,1018.62
2016-02-17T03:56:55.530Z,1018.59
2016-02-17T03:57:55.548Z,1018.57
2016-02-17T03:58:55.566Z,1018.59
2016-02-17T03:59:55.568Z,1018.59
2016-02-17T04:00:55.588Z,1018.58
2016-02-17T04:01:55.606Z,1018.6
2016-02-17T04:02:55.624Z,1018.57
2016-02-17T04:03:55.627Z,1018.55
2016-02-17T04:04:55.645Z,1018.57
2016-02-17T04:05:55.663Z,1018.54
2016-02-17T04:06:55.681Z,1018.51
2016-02-17T04:07:55.700Z,1018.48
2016-02-17T04:08:55.703Z,1018.48
2016-02-17T04:09:55.721Z,1018.47
2016-02-17T04:10:55.739Z,1018.47
2016-02-17T04:11:55.758Z,1018.49
2016-02-17T04:12:55.760Z,1018.48
2016-02-17T04:13:55.778Z,1018.46
2016-02-17T04:14:55.797Z,1018.43
2016-02-17T04:15:55.815Z,1018.49
2016-02-17T04:16:55.833Z,1018.46
2016-02-17T04:17:55.836Z,1018.44
2016-02-17T04:18:55.855Z,1018.43
2016-02-17T04:19:55.872Z,1018.4
2016-02-17T04:20:55.891Z,1018.42
2016-02-17T04:21:55.894Z,1018.36
2016-02-17T04:22:55.913Z,1018.4
2016-02-17T04:23:55.930Z,1018.33
2016-02-17T04:24:55.949Z,1018.36
2016-02-17T04:25:55.967Z,1018.26
2016-02-17T04:26:55.969Z,1018.28
2016-02-17T04:27:55.988Z,1018.32
2016-02-17T04:28:56.006Z,1018.28
2016-02-17T04:29:56.024Z,1018.27
2016-02-17T04:30:56.027Z,1018.28
2016-02-17T04:31:56.046Z,1018.26
2016-02-17T04:32:56.065Z,1018.22
2016-02-17T04:33:56.067Z,1018.2
2016-02-17T04:34:56.085Z,1018.11
2016-02-17T04:35:56.103Z,1018.14
2016-02-17T04:36:56.121Z,1018.08
2016-02-17T04:37:56.140Z,1018.02
2016-02-17T04:38:56.159Z,1017.93
2016-02-17T04:39:56.176Z,1017.89
2016-02-17T04:40:56.179Z,1017.95
2016-02-17T04:41:56.197Z,1017.97
2016-02-17T04:42:56.216Z,1017.94
2016-02-17T04:43:56.219Z,1017.98
2016-02-17T04:44:56.267Z,1017.9
2016-02-17T04:45:56.256Z,1017.89
2016-02-17T04:46:56.273Z,1017.8
2016-02-17T04:47:56.276Z,1017.8
2016-02-17T04:48:56.295Z,1017.83
2016-02-17T04:49:56.313Z,1017.87
2016-02-17T04:50:56.331Z,1017.81
2016-02-17T04:51:56.334Z,1017.75
2016-02-17T04:52:56.352Z,1017.74
2016-02-17T04:53:56.371Z,1017.69
2016-02-17T04:54:56.389Z,1017.73
2016-02-17T04:55:56.391Z,1017.72
2016-02-17T04:56:56.410Z,1017.65
2016-02-17T04:57:56.427Z,1017.7
2016-02-17T04:58:56.446Z,1017.71
2016-02-17T04:59:56.449Z,1017.69
2016-02-17T05:00:56.468Z,1017.71
2016-02-17T05:01:56.486Z,1017.65
2016-02-17T05:02:56.504Z,1017.65
2016-02-17T05:03:56.507Z,1017.59
2016-02-17T05:04:56.525Z,1017.62
2016-02-17T05:05:56.543Z,1017.58
2016-02-17T05:06:56.562Z,1017.57
2016-02-17T05:07:56.565Z,1017.59
2016-02-17T05:08:56.583Z,1017.54
2016-02-17T05:09:56.601Z,1017.59
2016-02-17T05:10:56.620Z,1017.57
2016-02-17T05:11:56.622Z,1017.56
2016-02-17T05:12:56.640Z,1017.51
2016-02-17T05:13:56.658Z,1017.5
2016-02-17T05:14:56.678Z,1017.49
2016-02-17T05:15:56.680Z,1017.51
2016-02-17T05:16:56.698Z,1017.46
2016-02-17T05:17:56.717Z,1017.5
2016-02-17T05:18:56.734Z,1017.46
2016-02-17T05:19:56.737Z,1017.42
2016-02-17T05:20:56.755Z,1017.41
2016-02-17T05:21:56.774Z,1017.39
2016-02-17T05:22:56.777Z,1017.31
2016-02-17T05:23:56.795Z,1017.32
2016-02-17T05:24:56.814Z,1017.35
2016-02-17T05:25:56.832Z,1017.36
2016-02-17T05:26:56.835Z,1017.42
2016-02-17T05:27:56.852Z,1017.45
2016-02-17T05:28:56.871Z,1017.37
2016-02-17T05:29:56.889Z,1017.36
2016-02-17T05:30:56.892Z,1017.34
2016-02-17T05:31:56.910Z,1017.35
2016-02-17T05:32:56.929Z,1017.37
2016-02-17T05:33:56.946Z,1017.38
2016-02-17T05:34:56.949Z,1017.36
2016-02-17T05:35:56.968Z,1017.32
2016-02-17T05:36:56.987Z,1017.31
2016-02-17T05:37:57.005Z,1017.32
2016-02-17T05:38:57.007Z,1017.28
2016-02-17T05:39:57.026Z,1017.26
2016-02-17T05:40:57.043Z,1017.3
2016-02-17T05:41:57.046Z,1017.31
2016-02-17T05:42:57.064Z,1017.3
2016-02-17T05:43:57.084Z,1017.31
2016-02-17T05:44:57.101Z,1017.3
2016-02-17T05:45:57.120Z,1017.21
2016-02-17T05:46:57.123Z,1017.18
2016-02-17T05:47:57.141Z,1017.14
2016-02-17T05:48:57.159Z,1017.18
2016-02-17T05:49:57.161Z,1017.12
2016-02-17T05:50:57.180Z,1017.13
2016-02-17T05:51:57.198Z,1017.11
2016-02-17T05:52:57.217Z,1017.07
2016-02-17T05:53:57.220Z,1017.03
2016-02-17T05:54:57.253Z,1017.03
2016-02-17T05:55:57.256Z,1016.97
2016-02-17T05:56:57.274Z,1016.98
2016-02-17T05:57:57.277Z,1016.97
2016-02-17T05:58:57.295Z,1016.93
2016-02-17T05:59:57.314Z,1016.98
2016-02-17T06:00:57.333Z,1016.98
2016-02-17T06:01:57.335Z,1016.98
2016-02-17T06:02:57.352Z,1016.98
2016-02-17T06:03:57.371Z,1016.95
2016-02-17T06:04:57.390Z,1016.93
2016-02-17T06:05:57.392Z,1016.92
2016-02-17T06:06:57.411Z,1016.9
2016-02-17T06:07:57.429Z,1016.87
2016-02-17T06:08:57.448Z,1016.84
2016-02-17T06:09:57.450Z,1016.85
2016-02-17T06:10:57.468Z,1016.82
2016-02-17T06:11:57.487Z,1016.8
2016-02-17T06:12:57.489Z,1016.81
2016-02-17T06:13:57.508Z,1016.84
2016-02-17T06:14:57.526Z,1016.84
2016-02-17T06:15:57.544Z,1016.8
2016-02-17T06:16:57.547Z,1016.72
2016-02-17T06:17:57.565Z,1016.7
2016-02-17T06:18:57.584Z,1016.66
2016-02-17T06:19:57.587Z,1016.64
2016-02-17T06:20:57.620Z,1016.63
2016-02-17T06:21:57.622Z,1016.55
2016-02-17T06:22:57.642Z,1016.62
2016-02-17T06:23:57.645Z,1016.65
2016-02-17T06:24:57.662Z,1016.65
2016-02-17T06:25:57.681Z,1016.63
2016-02-17T06:26:57.699Z,1016.6
2016-02-17T06:27:57.702Z,1016.6
2016-02-17T06:28:57.719Z,1016.63
2016-02-17T06:29:57.738Z,1016.6
2016-02-17T06:30:57.757Z,1016.57
2016-02-17T06:31:57.760Z,1016.55
2016-02-17T06:32:57.778Z,1016.6
2016-02-17T06:33:57.796Z,1016.53
2016-02-17T06:34:57.799Z,1016.5
2016-02-17T06:35:57.816Z,1016.43
2016-02-17T06:36:57.835Z,1016.39
2016-02-17T06:37:57.853Z,1016.33
2016-02-17T06:38:57.857Z,1016.34
2016-02-17T06:39:57.875Z,1016.36
2016-02-17T06:40:57.893Z,1016.36
2016-02-17T06:41:57.896Z,1016.35
2016-02-17T06:42:57.914Z,1016.35
2016-02-17T06:43:57.932Z,1016.31
2016-02-17T06:44:57.950Z,1016.29
2016-02-17T06:45:57.953Z,1016.31
2016-02-17T06:46:57.972Z,1016.27
2016-02-17T06:47:57.990Z,1016.26
2016-02-17T06:48:57.993Z,1016.2
2016-02-17T06:49:58.026Z,1016.19
2016-02-17T06:50:58.029Z,1016.2
2016-02-17T06:51:58.048Z,1016.12
2016-02-17T06:52:58.066Z,1016.11
2016-02-17T06:53:58.068Z,1016.11
2016-02-17T06:54:58.087Z,1016.09
2016-02-17T06:55:58.106Z,1016.09
2016-02-17T06:56:58.108Z,1016.13
2016-02-17T06:57:58.125Z,1016.13
2016-02-17T06:58:58.144Z,1016.09
2016-02-17T06:59:58.163Z,1016.07
2016-02-17T07:00:58.180Z,1016.07
2016-02-17T07:01:58.184Z,1016.09
2016-02-17T07:02:58.203Z,1015.97
2016-02-17T07:03:58.220Z,1015.98
2016-02-17T07:04:58.223Z,1015.97
2016-02-17T07:05:58.241Z,1015.96
2016-02-17T07:06:58.260Z,1015.94
2016-02-17T07:07:58.263Z,1015.88
2016-02-17T07:08:58.281Z,1015.87
2016-02-17T07:09:58.299Z,1015.84
2016-02-17T07:10:58.302Z,1015.81
2016-02-17T07:11:58.321Z,1015.82
2016-02-17T07:12:58.338Z,1015.77
2016-02-17T07:13:58.357Z,1015.78
2016-02-17T07:14:58.359Z,1015.77
2016-02-17T07:15:58.379Z,1015.72
2016-02-17T07:16:58.396Z,1015.69
2016-02-17T07:17:58.414Z,1015.68
2016-02-17T07:18:58.417Z,1015.73
2016-02-17T07:19:58.435Z,1015.67
2016-02-17T07:20:58.453Z,1015.65
2016-02-17T07:21:58.473Z,1015.63
2016-02-17T07:22:58.489Z,1015.59
2016-02-17T07:23:58.493Z,1015.58
2016-02-17T07:24:58.511Z,1015.54
2016-02-17T07:25:58.514Z,1015.56
2016-02-17T07:26:58.533Z,1015.55
2016-02-17T07:27:58.550Z,1015.51
2016-02-17T07:28:58.569Z,1015.44
2016-02-17T07:29:58.587Z,1015.42
2016-02-17T07:30:58.589Z,1015.4
2016-02-17T07:31:58.609Z,1015.41
2016-02-17T07:32:58.627Z,1015.42
2016-02-17T07:33:58.630Z,1015.37
2016-02-17T07:34:58.647Z,1015.34
2016-02-17T07:35:58.666Z,1015.34
2016-02-17T07:36:58.669Z,1015.31
2016-02-17T07:37:58.687Z,1015.32
2016-02-17T07:38:58.705Z,1015.31
2016-02-17T07:39:58.724Z,1015.3
2016-02-17T07:40:58.727Z,1015.29
2016-02-17T07:41:58.744Z,1015.28
2016-02-17T07:42:58.763Z,1015.25
2016-02-17T07:43:58.782Z,1015.26
2016-02-17T07:44:58.784Z,1015.24
2016-02-17T07:45:58.801Z,1015.22
2016-02-17T07:46:58.821Z,1015.21
2016-02-17T07:47:58.854Z,1015.22
2016-02-17T07:48:58.839Z,1015.23
2016-02-17T07:49:58.855Z,1015.24
2016-02-17T07:50:58.842Z,1015.18
2016-02-17T07:51:58.843Z,1015.14
2016-02-17T07:52:58.830Z,1015.06
2016-02-17T07:53:58.834Z,1015.04
2016-02-17T07:54:58.846Z,1015.03
2016-02-17T07:55:58.846Z,1014.96
2016-02-17T07:56:58.859Z,1014.95
2016-02-17T07:57:58.888Z,1014.9
2016-02-17T07:58:58.868Z,1014.85
2016-02-17T07:59:58.882Z,1014.79
2016-02-17T08:00:58.897Z,1014.73
2016-02-17T08:01:58.914Z,1014.76
2016-02-17T08:02:58.931Z,1014.69
2016-02-17T08:03:58.931Z,1014.64
2016-02-17T08:04:58.949Z,1014.61
2016-02-17T08:05:58.966Z,1014.61
2016-02-17T08:06:58.968Z,1014.6
2016-02-17T08:07:58.985Z,1014.53
2016-02-17T08:08:59.003Z,1014.52
2016-02-17T08:09:59.005Z,1014.41
2016-02-17T08:10:59.023Z,1014.48
2016-02-17T08:11:59.040Z,1014.42
2016-02-17T08:12:59.059Z,1014.37
2016-02-17T08:13:59.061Z,1014.36
2016-02-17T08:14:59.078Z,1014.33
2016-02-17T08:15:59.097Z,1014.28
2016-02-17T08:16:59.115Z,1014.32
2016-02-17T08:17:59.119Z,1014.26
2016-02-17T08:18:59.152Z,1014.29
2016-02-17T08:19:59.155Z,1014.2
2016-02-17T08:20:59.157Z,1014.14
2016-02-17T08:21:59.176Z,1014.11
2016-02-17T08:22:59.194Z,1014.14
2016-02-17T08:23:59.212Z,1014.13
2016-02-17T08:24:59.231Z,1014.08
2016-02-17T08:25:59.233Z,1014.07
2016-02-17T08:26:59.252Z,1014.03
2016-02-17T08:27:59.271Z,1014.01
2016-02-17T08:28:59.289Z,1013.95
2016-02-17T08:29:59.291Z,1013.91
2016-02-17T08:30:59.310Z,1013.86
2016-02-17T08:31:59.329Z,1013.8
2016-02-17T08:32:59.362Z,1013.83
2016-02-17T08:33:59.348Z,1013.81
2016-02-17T08:34:59.383Z,1013.81
2016-02-17T08:35:59.385Z,1013.81
2016-02-17T08:36:59.388Z,1013.82
2016-02-17T08:37:59.406Z,1013.8
2016-02-17T08:38:59.425Z,1013.77
2016-02-17T08:39:59.443Z,1013.69
2016-02-17T08:40:59.462Z,1013.73
2016-02-17T08:41:59.464Z,1013.61
2016-02-17T08:42:59.483Z,1013.6
2016-02-17T08:43:59.501Z,1013.56
2016-02-17T08:44:59.520Z,1013.45
2016-02-17T08:45:59.523Z,1013.49
2016-02-17T08:46:59.540Z,1013.43
2016-02-17T08:47:59.559Z,1013.39
2016-02-17T08:48:59.562Z,1013.34
2016-02-17T08:49:59.595Z,1013.36
2016-02-17T08:50:59.614Z,1013.34
2016-02-17T08:51:59.616Z,1013.32
2016-02-17T08:52:59.619Z,1013.23
2016-02-17T08:53:59.637Z,1013.18
2016-02-17T08:54:59.655Z,1013.21
2016-02-17T08:55:59.674Z,1013.16
2016-02-17T08:56:59.677Z,1013.13
2016-02-17T08:57:59.695Z,1013.1
2016-02-17T08:58:59.713Z,1013.11
2016-02-17T08:59:59.732Z,1013.16
2016-02-17T09:00:59.749Z,1013.12
2016-02-17T09:01:59.752Z,1013.16
2016-02-17T09:02:59.771Z,1013.12
2016-02-17T09:03:59.790Z,1013.14
2016-02-17T09:04:59.808Z,1013.13
2016-02-17T09:05:59.826Z,1013.11
2016-02-17T09:06:59.829Z,1013.12
2016-02-17T09:07:59.846Z,1013.1
2016-02-17T09:08:59.865Z,1013.06
2016-02-17T09:09:59.884Z,1013.04
2016-02-17T09:10:59.886Z,1013.06
2016-02-17T09:11:59.904Z,1013.03
2016-02-17T09:12:59.922Z,1013.04
2016-02-17T09:13:59.942Z,1013.04
2016-02-17T09:14:59.960Z,1012.99
2016-02-17T09:15:59.978Z,1012.97
2016-02-17T09:16:59.981Z,1012.9
2016-02-17T09:17:59.998Z,1012.81
2016-02-17T09:19:00.017Z,1012.79
2016-02-17T09:20:00.019Z,1012.74
2016-02-17T09:21:00.038Z,1012.73
2016-02-17T09:22:00.056Z,1012.65
2016-02-17T09:23:00.074Z,1012.68
2016-02-17T09:24:00.094Z,1012.59
2016-02-17T09:25:00.096Z,1012.62
2016-02-17T09:26:00.114Z,1012.59
2016-02-17T09:27:00.132Z,1012.58
2016-02-17T09:28:00.150Z,1012.58
2016-02-17T09:29:00.168Z,1012.62
2016-02-17T09:30:00.172Z,1012.59
2016-02-17T09:31:00.190Z,1012.46
2016-02-17T09:32:00.208Z,1012.53
2016-02-17T09:33:00.226Z,1012.51
2016-02-17T09:34:00.229Z,1012.49
2016-02-17T09:35:00.248Z,1012.5
2016-02-17T09:36:00.265Z,1012.37
2016-02-17T09:37:00.285Z,1012.39
2016-02-17T09:38:00.303Z,1012.32
2016-02-17T09:39:00.305Z,1012.37
2016-02-17T09:40:00.340Z,1012.28
2016-02-17T09:41:00.342Z,1012.25
2016-02-17T09:42:00.360Z,1012.22
2016-02-17T09:43:00.379Z,1012.22
2016-02-17T09:44:00.381Z,1012.16
2016-02-17T09:45:00.400Z,1012.14
2016-02-17T09:46:00.433Z,1012.15
2016-02-17T09:47:00.436Z,1012.12
2016-02-17T09:48:00.454Z,1012.05
2016-02-17T09:49:00.457Z,1012
2016-02-17T09:50:00.491Z,1012.03
2016-02-17T09:51:00.494Z,1012
2016-02-17T09:52:00.512Z,1011.95
2016-02-17T09:53:00.531Z,1012.01
2016-02-17T09:54:00.549Z,1012.05
2016-02-17T09:55:00.552Z,1012.04
2016-02-17T09:56:00.569Z,1012.03
2016-02-17T09:57:00.588Z,1012.01
2016-02-17T09:58:00.606Z,1012.01
2016-02-17T09:59:00.609Z,1011.94
2016-02-17T10:00:00.644Z,1011.96
2016-02-17T10:01:00.646Z,1011.99
2016-02-17T10:02:00.664Z,1011.89
2016-02-17T10:03:00.683Z,1011.86
2016-02-17T10:04:00.701Z,1011.8
2016-02-17T10:05:00.703Z,1011.77
2016-02-17T10:06:00.721Z,1011.74
2016-02-17T10:07:00.740Z,1011.73
2016-02-17T10:08:00.758Z,1011.7
2016-02-17T10:09:00.776Z,1011.67
2016-02-17T10:10:00.779Z,1011.63
2016-02-17T10:11:00.860Z,1011.59
2016-02-17T10:12:00.815Z,1011.54
2016-02-17T10:13:00.834Z,1011.54
2016-02-17T10:14:00.853Z,1011.51
2016-02-17T10:15:00.870Z,1011.49
2016-02-17T10:16:00.890Z,1011.46
2016-02-17T10:17:00.892Z,1011.42
2016-02-17T10:18:00.910Z,1011.4
2016-02-17T10:19:00.928Z,1011.36
2016-02-17T10:20:00.947Z,1011.27
2016-02-17T10:21:00.950Z,1011.28
2016-02-17T10:22:00.983Z,1011.22
2016-02-17T10:23:00.986Z,1011.23
2016-02-17T10:24:01.005Z,1011.22
2016-02-17T10:25:01.022Z,1011.18
2016-02-17T10:26:01.041Z,1011.16
2016-02-17T10:27:01.044Z,1011.08
2016-02-17T10:28:01.062Z,1011.05
2016-02-17T10:29:01.080Z,1011.02
2016-02-17T10:30:01.099Z,1010.97
2016-02-17T10:31:01.117Z,1010.94
2016-02-17T10:32:01.277Z,1010.91
2016-02-17T10:33:01.138Z,1010.82
2016-02-17T10:34:01.172Z,1010.76
2016-02-17T10:35:01.175Z,1010.72
2016-02-17T10:36:01.193Z,1010.72
2016-02-17T10:37:01.211Z,1010.67
2016-02-17T10:38:01.214Z,1010.62
2016-02-17T10:39:01.233Z,1010.58
2016-02-17T10:40:01.267Z,1010.58
2016-02-17T10:41:01.269Z,1010.56
2016-02-17T10:42:01.288Z,1010.5
2016-02-17T10:43:01.307Z,1010.51
2016-02-17T10:44:01.328Z,1010.46
2016-02-17T10:45:01.912Z,1010.39
2016-02-17T10:46:01.353Z,1010.42
2016-02-17T10:47:01.368Z,1010.41
2016-02-17T10:48:01.378Z,1010.29
2016-02-17T10:49:01.397Z,1010.28
2016-02-17T10:50:01.414Z,1010.21
2016-02-17T10:51:01.434Z,1010.12
2016-02-17T10:52:01.452Z,1010.14
2016-02-17T10:53:01.455Z,1010.07
2016-02-17T10:54:01.473Z,1010.06
2016-02-17T10:55:01.492Z,1010.03
2016-02-17T10:56:01.510Z,1010.03
2016-02-17T10:57:01.522Z,1009.95
2016-02-17T10:58:01.541Z,1009.91
2016-02-17T10:59:01.559Z,1009.9
2016-02-17T11:00:01.577Z,1009.9
2016-02-17T11:01:01.596Z,1009.84
2016-02-17T11:02:01.598Z,1009.77
2016-02-17T11:03:01.616Z,1009.74
2016-02-17T11:04:01.651Z,1009.71
2016-02-17T11:05:01.654Z,1009.66
2016-02-17T11:06:01.671Z,1009.66
2016-02-17T11:07:01.690Z,1009.67
2016-02-17T11:08:01.709Z,1009.63
2016-02-17T11:09:01.711Z,1009.65
2016-02-17T11:10:01.730Z,1009.63
2016-02-17T11:11:01.748Z,1009.61
2016-02-17T11:12:01.766Z,1009.61
2016-02-17T11:13:01.784Z,1009.5
2016-02-17T11:14:01.803Z,1009.5
2016-02-17T11:15:01.821Z,1009.5
2016-02-17T11:16:01.824Z,1009.45
2016-02-17T11:17:01.843Z,1009.44
2016-02-17T11:18:01.861Z,1009.46
2016-02-17T11:19:01.879Z,1009.4
2016-02-17T11:20:01.897Z,1009.42
2016-02-17T11:21:01.915Z,1009.4
2016-02-17T11:22:01.934Z,1009.33
2016-02-17T11:23:01.937Z,1009.29
2016-02-17T11:24:01.955Z,1009.22
2016-02-17T11:25:01.989Z,1009.18
2016-02-17T11:26:01.992Z,1009.13
2016-02-17T11:27:02.010Z,1009.07
2016-02-17T11:28:02.028Z,1009.06
2016-02-17T11:29:02.047Z,1009.03
2016-02-17T11:30:02.065Z,1008.99
2016-02-17T11:31:02.083Z,1008.97
2016-02-17T11:32:02.086Z,1008.94
2016-02-17T11:33:02.105Z,1008.86
2016-02-17T11:34:02.123Z,1008.84
2016-02-17T11:35:02.141Z,1008.84
2016-02-17T11:36:02.160Z,1008.76
2016-02-17T11:37:02.177Z,1008.76
2016-02-17T11:38:02.196Z,1008.72
2016-02-17T11:39:02.198Z,1008.66
2016-02-17T11:40:02.216Z,1008.68
2016-02-17T11:41:02.235Z,1008.62
2016-02-17T11:42:02.254Z,1008.55
2016-02-17T11:43:02.272Z,1008.55
2016-02-17T11:44:02.290Z,1008.53
2016-02-17T11:45:02.309Z,1008.46
2016-02-17T11:46:02.327Z,1008.39
2016-02-17T11:47:02.346Z,1008.41
2016-02-17T11:48:02.521Z,1008.38
2016-02-17T11:49:02.366Z,1008.37
2016-02-17T11:50:02.400Z,1008.35
2016-02-17T11:51:02.419Z,1008.33
2016-02-17T11:52:02.421Z,1008.34
2016-02-17T11:53:02.440Z,1008.35
2016-02-17T11:54:02.459Z,1008.34
2016-02-17T11:55:02.476Z,1008.3
2016-02-17T11:56:02.479Z,1008.22
2016-02-17T11:57:02.498Z,1008.3
2016-02-17T11:58:02.515Z,1008.16
2016-02-17T11:59:02.535Z,1008.18
2016-02-17T12:00:02.553Z,1008.14
2016-02-17T12:01:02.570Z,1008.08
2016-02-17T12:02:02.590Z,1008.07
2016-02-17T12:03:02.608Z,1008.1
2016-02-17T12:04:02.611Z,1008.01
2016-02-17T12:05:02.633Z,1008.04
2016-02-17T12:06:02.652Z,1008.05
2016-02-17T12:07:02.669Z,1008
2016-02-17T12:08:02.688Z,1007.98
2016-02-17T12:09:02.691Z,1007.99